Time;durP1;ratioP1;P1;durP2;ratioP2;P2;SDS_P1;SDS_P2;PMS_P1;PMS_P2;Temp;Humidity;BMP_temperature;BMP_pressure;BME280_temperature;BME280_humidity;BME280_pressure;Samples;Min_cycle;Max_cycle;Signal;HPM_P1;HPM_P2
2022/07/20 00:01:22;;;;;;;10.00;9.00;;;24.60;63.80;;;;;;5037563;28;20212;-70
2022/07/20 00:03:50;;;;;;;8.67;7.87;;;24.50;63.30;;;;;;5002236;28;20196;-70
2022/07/20 00:06:16;;;;;;;8.80;8.00;;;24.50;62.20;;;;;;5055333;28;20528;-70
2022/07/20 00:11:26;;;;;;;8.90;7.90;;;24.50;61.90;;;;;;5035192;28;20535;-70
2022/07/20 00:14:00;;;;;;;9.77;8.83;;;24.50;62.10;;;;;;5035868;28;20459;-70
2022/07/20 00:16:28;;;;;;;8.87;8.03;;;24.50;62.60;;;;;;5054987;28;20172;-70
2022/07/20 00:18:54;;;;;;;9.10;8.40;;;24.40;62.90;;;;;;5054460;28;20416;-71
2022/07/20 00:21:20;;;;;;;8.67;7.90;;;24.40;63.10;;;;;;5055015;28;20524;-70
2022/07/20 00:23:46;;;;;;;9.77;8.90;;;24.40;63.00;;;;;;5074421;28;20222;-70
2022/07/20 00:26:12;;;;;;;10.87;8.80;;;24.40;63.80;;;;;;5074853;28;20494;-70
2022/07/20 00:28:41;;;;;;;9.03;8.00;;;24.30;63.00;;;;;;5074298;28;20173;-70
2022/07/20 00:31:06;;;;;;;10.17;9.33;;;24.30;63.10;;;;;;5073912;28;20298;-70
2022/07/20 00:33:32;;;;;;;9.27;8.60;;;24.30;63.00;;;;;;5074784;28;20525;-70
2022/07/20 00:35:58;;;;;;;9.47;8.77;;;24.20;63.60;;;;;;5073927;28;20173;-70
2022/07/20 00:38:24;;;;;;;9.60;8.80;;;24.10;63.70;;;;;;5074660;28;20263;-70
2022/07/20 00:40:50;;;;;;;8.43;7.60;;;24.10;63.90;;;;;;5073071;28;20185;-70
2022/07/20 00:43:16;;;;;;;9.90;9.00;;;24.10;63.90;;;;;;5074691;28;20181;-70
2022/07/20 00:45:42;;;;;;;9.33;8.30;;;24.10;63.80;;;;;;5072639;28;20431;-70
2022/07/20 00:48:08;;;;;;;8.87;8.10;;;24.00;64.40;;;;;;5072823;28;20526;-70
2022/07/20 00:50:33;;;;;;;8.40;7.60;;;24.00;64.10;;;;;;5073658;28;20534;-70
2022/07/20 00:53:03;;;;;;;9.07;7.93;;;24.00;65.00;;;;;;5071332;28;20322;-70
2022/07/20 00:55:29;;;;;;;12.10;8.03;;;24.00;65.20;;;;;;5074447;28;20205;-70
2022/07/20 00:57:55;;;;;;;8.87;8.00;;;24.00;65.30;;;;;;5072679;28;20442;-70
2022/07/20 01:00:20;;;;;;;9.00;8.30;;;23.90;65.90;;;;;;5073876;28;20222;-70
2022/07/20 01:02:47;;;;;;;8.70;8.00;;;23.80;66.10;;;;;;5073415;28;20230;-70
2022/07/20 01:05:15;;;;;;;9.90;8.90;;;23.80;66.30;;;;;;5074249;28;20588;-70
2022/07/20 01:07:48;;;;;;;9.13;8.27;;;23.80;66.70;;;;;;5073519;28;20417;-70
2022/07/20 01:10:16;;;;;;;9.33;8.47;;;23.80;65.70;;;;;;5072951;28;20761;-70
2022/07/20 01:12:49;;;;;;;10.23;8.10;;;23.80;66.40;;;;;;5071223;28;20488;-70
2022/07/20 01:15:15;;;;;;;9.53;8.83;;;23.80;68.10;;;;;;5072817;28;20489;-70
2022/07/20 01:17:41;;;;;;;9.60;8.80;;;23.70;67.30;;;;;;5073394;28;20472;-70
2022/07/20 01:20:13;;;;;;;10.20;8.60;;;23.70;67.30;;;;;;5072086;28;20425;-70
2022/07/20 01:22:39;;;;;;;11.40;8.77;;;23.70;68.30;;;;;;5035988;28;20424;-70
2022/07/20 01:25:05;;;;;;;8.60;8.00;;;23.70;69.20;;;;;;5052874;28;20412;-70
2022/07/20 01:27:32;;;;;;;8.77;8.00;;;23.70;69.80;;;;;;5053672;28;20169;-70
2022/07/20 01:29:58;;;;;;;8.90;8.10;;;23.70;69.90;;;;;;5051905;28;20436;-70
2022/07/20 01:32:24;;;;;;;9.53;8.80;;;23.70;70.40;;;;;;5052569;28;20432;-70
2022/07/20 01:34:50;;;;;;;9.43;8.73;;;23.60;70.70;;;;;;5034946;28;20548;-70
2022/07/20 01:37:16;;;;;;;9.53;8.73;;;23.50;70.80;;;;;;5052528;28;20224;-70
2022/07/20 01:39:41;;;;;;;9.47;8.63;;;23.50;71.70;;;;;;5053067;28;20588;-70
2022/07/20 01:42:07;;;;;;;9.67;8.97;;;23.40;73.10;;;;;;5052772;28;20177;-70
2022/07/20 01:44:33;;;;;;;9.00;8.20;;;23.40;73.10;;;;;;5026763;28;20190;-70
2022/07/20 01:46:58;;;;;;;9.50;8.70;;;23.30;73.40;;;;;;5051416;28;20235;-70
2022/07/20 01:49:24;;;;;;;10.00;9.00;;;23.30;73.10;;;;;;5050556;28;20532;-70
2022/07/20 01:51:51;;;;;;;8.90;8.27;;;23.20;74.60;;;;;;5052473;28;20184;-70
2022/07/20 01:54:17;;;;;;;9.60;8.90;;;23.20;74.40;;;;;;5052156;28;20213;-70
2022/07/20 01:56:43;;;;;;;9.63;8.83;;;23.20;75.40;;;;;;5051789;28;20440;-70
2022/07/20 01:59:12;;;;;;;10.37;9.03;;;23.20;75.10;;;;;;5001175;28;20213;-70
2022/07/20 02:01:38;;;;;;;10.30;9.40;;;23.10;75.10;;;;;;5052991;28;20427;-70
2022/07/20 02:04:07;;;;;;;10.60;9.80;;;23.10;75.90;;;;;;5052192;28;20499;-70
2022/07/20 02:06:32;;;;;;;10.37;9.57;;;23.10;76.20;;;;;;5052935;28;20412;-70
2022/07/20 02:08:58;;;;;;;11.00;9.83;;;23.10;76.80;;;;;;5017742;28;20424;-70
2022/07/20 02:11:24;;;;;;;12.10;11.10;;;23.00;77.40;;;;;;5052415;28;20182;-70
2022/07/20 02:13:50;;;;;;;12.27;11.30;;;23.00;77.90;;;;;;5050957;28;20213;-70
2022/07/20 02:16:15;;;;;;;11.57;10.47;;;23.00;79.00;;;;;;5048827;28;20193;-70
2022/07/20 02:18:51;;;;;;;11.33;10.20;;;23.00;79.50;;;;;;5052742;28;20204;-70
2022/07/20 02:21:18;;;;;;;10.57;9.80;;;23.00;79.20;;;;;;5052418;28;20299;-70
2022/07/20 02:23:45;;;;;;;11.53;10.33;;;23.00;79.10;;;;;;5052256;28;20428;-70
2022/07/20 02:26:11;;;;;;;10.90;10.07;;;23.00;80.30;;;;;;5052416;28;20435;-70
2022/07/20 02:28:37;;;;;;;10.23;9.43;;;23.00;79.90;;;;;;5051802;28;20428;-70
2022/07/20 02:31:03;;;;;;;11.20;10.10;;;22.90;80.50;;;;;;5051455;28;20184;-70
2022/07/20 02:33:29;;;;;;;11.97;10.97;;;22.90;81.00;;;;;;5051841;28;20811;-70
2022/07/20 02:35:55;;;;;;;12.83;11.63;;;22.90;81.80;;;;;;5032810;28;20434;-70
2022/07/20 02:38:21;;;;;;;11.57;10.67;;;22.90;82.30;;;;;;5052476;28;20408;-70
2022/07/20 02:40:47;;;;;;;12.53;11.23;;;22.90;82.30;;;;;;5051486;28;20231;-70
2022/07/20 02:43:15;;;;;;;11.60;10.40;;;22.90;82.00;;;;;;5050108;28;20182;-71
2022/07/20 02:45:41;;;;;;;11.37;10.47;;;22.80;82.40;;;;;;5050757;28;20478;-70
2022/07/20 02:48:06;;;;;;;11.27;10.33;;;22.80;83.30;;;;;;5051496;28;20178;-70
2022/07/20 02:50:38;;;;;;;11.33;10.43;;;22.80;83.10;;;;;;5052424;28;20174;-71
2022/07/20 02:53:05;;;;;;;11.93;10.93;;;22.80;84.50;;;;;;5051089;28;20235;-71
2022/07/20 02:55:31;;;;;;;11.93;10.73;;;22.80;83.70;;;;;;5048993;28;20446;-71
2022/07/20 02:57:57;;;;;;;11.73;10.73;;;22.70;84.20;;;;;;5047557;28;20471;-71
2022/07/20 03:00:23;;;;;;;11.37;10.47;;;22.70;86.90;;;;;;5052218;28;20829;-73
2022/07/20 03:02:50;;;;;;;12.00;10.87;;;22.70;87.10;;;;;;5050119;28;20466;-74
2022/07/20 03:05:16;;;;;;;11.63;10.50;;;22.70;86.00;;;;;;5034333;28;20415;-73
2022/07/20 03:07:42;;;;;;;11.10;10.20;;;22.70;86.20;;;;;;5051841;28;20431;-73
2022/07/20 03:10:09;;;;;;;12.50;11.40;;;22.70;86.10;;;;;;5050277;28;20424;-73
2022/07/20 03:12:35;;;;;;;11.10;9.97;;;22.70;86.30;;;;;;5051460;28;20208;-73
2022/07/20 03:15:01;;;;;;;10.80;10.00;;;22.80;86.30;;;;;;5046820;28;20464;-73
2022/07/20 03:17:27;;;;;;;9.77;8.87;;;22.80;86.20;;;;;;5050386;28;20174;-72
2022/07/20 03:19:53;;;;;;;10.27;9.27;;;22.70;85.30;;;;;;5049295;28;20411;-73
2022/07/20 03:22:18;;;;;;;12.37;9.57;;;22.80;85.40;;;;;;5073210;28;20227;-73
2022/07/20 03:24:44;;;;;;;11.20;10.20;;;22.80;86.00;;;;;;5057162;28;20204;-73
2022/07/20 03:27:10;;;;;;;10.77;9.80;;;22.80;85.40;;;;;;5037209;28;20188;-74
2022/07/20 03:29:36;;;;;;;10.83;9.93;;;22.80;84.20;;;;;;5055540;28;20184;-74
2022/07/20 03:32:03;;;;;;;10.27;9.37;;;22.80;84.00;;;;;;5054787;28;20498;-74
2022/07/20 03:34:28;;;;;;;10.57;9.77;;;22.90;84.30;;;;;;5055766;28;20503;-73
2022/07/20 03:36:54;;;;;;;12.63;10.73;;;22.90;83.80;;;;;;5063077;28;20434;-74
2022/07/20 03:39:20;;;;;;;10.00;9.20;;;23.00;82.60;;;;;;5075550;28;20181;-73
2022/07/20 03:41:46;;;;;;;11.00;10.10;;;23.00;81.60;;;;;;5075820;28;20173;-74
2022/07/20 03:44:12;;;;;;;10.90;9.93;;;23.00;81.00;;;;;;5059993;28;20188;-73
2022/07/20 03:46:37;;;;;;;9.67;8.87;;;23.00;79.30;;;;;;5055626;28;20182;-73
2022/07/20 03:49:03;;;;;;;10.53;9.43;;;23.00;78.20;;;;;;5054816;28;20438;-74
2022/07/20 03:51:29;;;;;;;10.70;9.80;;;23.10;78.70;;;;;;5055304;28;20183;-73
2022/07/20 03:53:54;;;;;;;10.70;9.80;;;23.10;78.00;;;;;;5061443;28;20292;-74
2022/07/20 03:56:20;;;;;;;9.80;8.93;;;23.10;76.40;;;;;;5073981;28;20222;-73
2022/07/20 03:58:46;;;;;;;10.47;9.37;;;23.20;77.80;;;;;;5073442;28;20189;-73
2022/07/20 04:01:12;;;;;;;9.60;8.63;;;23.20;75.20;;;;;;5074600;28;20239;-74
2022/07/20 04:03:38;;;;;;;9.00;8.40;;;23.20;76.80;;;;;;5075263;28;20443;-73
2022/07/20 04:06:04;;;;;;;11.40;10.50;;;23.30;75.90;;;;;;5072034;28;20254;-73
2022/07/20 04:08:29;;;;;;;10.70;9.70;;;23.30;75.40;;;;;;5074201;28;20196;-74
2022/07/20 04:10:55;;;;;;;9.53;8.73;;;23.40;76.90;;;;;;5055381;28;20436;-73
2022/07/20 04:13:21;;;;;;;8.23;7.63;;;23.50;76.50;;;;;;5040512;28;20328;-73
2022/07/20 04:15:47;;;;;;;10.20;9.20;;;23.50;76.40;;;;;;5055025;28;20557;-73
2022/07/20 04:18:15;;;;;;;8.90;8.33;;;23.50;76.20;;;;;;5053897;28;20400;-73
2022/07/20 04:20:42;;;;;;;15.77;14.47;;;23.60;77.00;;;;;;5054736;28;20356;-73
2022/07/20 04:23:08;;;;;;;9.67;8.97;;;23.60;75.80;;;;;;5035002;28;20432;-73
2022/07/20 04:25:33;;;;;;;11.17;10.27;;;23.60;76.40;;;;;;5037075;28;20812;-73
2022/07/20 04:27:59;;;;;;;10.53;9.60;;;23.60;77.00;;;;;;5054064;28;20178;-73
2022/07/20 04:30:25;;;;;;;12.53;11.33;;;23.60;76.00;;;;;;5054503;28;20261;-74
2022/07/20 04:32:51;;;;;;;12.50;11.20;;;23.70;75.50;;;;;;5054177;28;20188;-74
2022/07/20 04:35:17;;;;;;;20.80;18.67;;;23.70;76.40;;;;;;5053896;28;20205;-74
2022/07/20 04:37:42;;;;;;;25.13;22.57;;;23.80;75.40;;;;;;5053192;28;20186;-74
2022/07/20 04:40:09;;;;;;;14.37;12.97;;;23.80;75.90;;;;;;5053569;28;20816;-74
2022/07/20 04:42:35;;;;;;;14.70;13.30;;;23.80;76.40;;;;;;5053426;28;20567;-73
2022/07/20 04:45:00;;;;;;;13.20;11.90;;;23.90;75.70;;;;;;5050882;28;20494;-74
2022/07/20 04:47:47;;;;;;;9.90;9.03;;;23.90;75.00;;;;;;5010771;28;20417;-74
2022/07/20 04:50:13;;;;;;;12.40;10.20;;;24.00;75.10;;;;;;5009347;28;20544;-74
2022/07/20 04:52:39;;;;;;;9.63;8.73;;;24.00;75.00;;;;;;5012232;28;20781;-74
2022/07/20 04:55:06;;;;;;;11.87;10.60;;;24.10;75.30;;;;;;5010613;28;21499;-74
2022/07/20 04:57:31;;;;;;;19.30;15.37;;;24.10;74.00;;;;;;5008989;28;20488;-74
2022/07/20 04:59:57;;;;;;;29.63;23.67;;;24.20;71.20;;;;;;5007704;28;20827;-74
2022/07/20 05:02:23;;;;;;;13.80;12.50;;;24.30;70.50;;;;;;5012165;28;20210;-74
2022/07/20 05:04:49;;;;;;;10.50;9.60;;;24.30;70.80;;;;;;5012047;28;20225;-74
2022/07/20 05:07:15;;;;;;;16.50;7.10;;;24.40;69.50;;;;;;4991821;28;20171;-74
2022/07/20 05:09:41;;;;;;;8.17;7.47;;;24.50;66.30;;;;;;5011571;28;20544;-73
2022/07/20 05:12:08;;;;;;;9.93;7.83;;;24.60;61.30;;;;;;5008077;28;20957;-73
2022/07/20 05:14:33;;;;;;;7.70;6.90;;;24.80;61.20;;;;;;5008572;28;20484;-74
2022/07/20 05:16:59;;;;;;;8.67;7.90;;;24.90;58.80;;;;;;5007890;28;20942;-73
2022/07/20 05:19:25;;;;;;;8.67;8.07;;;25.10;59.50;;;;;;5008802;28;20652;-74
2022/07/20 05:21:51;;;;;;;14.67;11.13;;;25.20;59.60;;;;;;5019495;28;20497;-72
2022/07/20 05:24:17;;;;;;;9.20;8.40;;;25.40;62.00;;;;;;5047377;28;20201;-73
2022/07/20 05:26:42;;;;;;;8.20;7.50;;;25.40;62.40;;;;;;5068592;28;20316;-71
2022/07/20 05:29:08;;;;;;;8.10;7.50;;;25.50;60.70;;;;;;5072737;28;20179;-71
2022/07/20 05:31:34;;;;;;;7.43;6.83;;;25.60;60.30;;;;;;5073514;28;20177;-72
2022/07/20 05:34:00;;;;;;;8.90;6.57;;;25.70;59.20;;;;;;5071278;28;20211;-74
2022/07/20 05:36:26;;;;;;;14.83;13.43;;;25.80;58.90;;;;;;5072608;28;20448;-72
2022/07/20 05:38:52;;;;;;;7.87;7.17;;;25.90;59.00;;;;;;5071417;28;20177;-78
2022/07/20 05:41:18;;;;;;;12.70;11.50;;;25.90;59.00;;;;;;5069764;28;20423;-72
2022/07/20 05:43:44;;;;;;;8.87;8.07;;;26.00;59.70;;;;;;5068742;28;20272;-71
2022/07/20 05:46:09;;;;;;;7.70;6.97;;;26.00;60.00;;;;;;5070430;28;20518;-72
2022/07/20 05:48:35;;;;;;;7.37;6.67;;;26.10;56.60;;;;;;5071164;28;20195;-72
2022/07/20 05:51:01;;;;;;;11.77;10.53;;;26.20;56.80;;;;;;5072042;28;20197;-72
2022/07/20 05:53:27;;;;;;;7.23;6.60;;;26.30;56.50;;;;;;5071340;28;20201;-72
2022/07/20 05:55:53;;;;;;;7.37;6.77;;;26.40;56.40;;;;;;5073158;28;20267;-72
2022/07/20 05:58:18;;;;;;;10.63;8.07;;;26.50;56.70;;;;;;5068557;28;20189;-72
2022/07/20 06:00:44;;;;;;;7.90;7.30;;;26.60;56.60;;;;;;5072168;28;20423;-72
2022/07/20 06:03:10;;;;;;;7.03;6.43;;;26.70;56.70;;;;;;5071510;28;20238;-72
2022/07/20 06:05:36;;;;;;;10.20;8.83;;;26.70;56.20;;;;;;5071902;28;20201;-72
2022/07/20 06:08:03;;;;;;;6.40;5.87;;;26.80;56.10;;;;;;5071172;28;20260;-72
2022/07/20 06:10:33;;;;;;;8.70;7.97;;;26.90;55.80;;;;;;5072846;28;20165;-70
2022/07/20 06:13:01;;;;;;;7.13;6.27;;;26.90;55.70;;;;;;5067155;28;20789;-73
2022/07/20 06:15:26;;;;;;;6.60;6.20;;;27.10;54.70;;;;;;5060792;28;20482;-70
2022/07/20 06:17:54;;;;;;;6.50;6.00;;;27.20;54.40;;;;;;5067563;28;20427;-70
2022/07/20 06:20:20;;;;;;;6.70;6.10;;;27.20;54.60;;;;;;5066227;28;20228;-70
2022/07/20 06:22:49;;;;;;;8.33;7.73;;;27.30;54.30;;;;;;5055022;28;20584;-71
2022/07/20 06:25:17;;;;;;;6.97;6.30;;;27.40;53.70;;;;;;5049937;28;20954;-71
2022/07/20 06:27:43;;;;;;;7.10;6.60;;;27.50;53.10;;;;;;5050818;28;20459;-71
2022/07/20 06:30:10;;;;;;;7.40;6.80;;;27.50;53.30;;;;;;5032563;28;20436;-71
2022/07/20 06:32:37;;;;;;;6.63;6.13;;;27.60;53.10;;;;;;5054841;28;20439;-72
2022/07/20 06:35:04;;;;;;;6.93;6.33;;;27.70;52.70;;;;;;5054414;28;20840;-70
2022/07/20 06:37:30;;;;;;;9.30;6.33;;;27.70;53.10;;;;;;5055549;28;20926;-67
2022/07/20 06:39:55;;;;;;;7.47;6.73;;;27.80;53.40;;;;;;5062663;28;20434;-68
2022/07/20 06:42:21;;;;;;;7.70;7.10;;;27.80;53.60;;;;;;5033198;28;20180;-69
2022/07/20 06:44:47;;;;;;;8.10;7.50;;;27.90;53.00;;;;;;5051590;28;20209;-69
2022/07/20 06:47:14;;;;;;;7.57;6.87;;;27.90;53.20;;;;;;5050818;28;20194;-69
2022/07/20 06:49:40;;;;;;;6.70;6.30;;;28.00;53.70;;;;;;5051793;28;20432;-70
2022/07/20 06:52:06;;;;;;;8.43;7.57;;;28.00;53.70;;;;;;5054438;28;20440;-69
2022/07/20 06:54:32;;;;;;;7.10;6.57;;;28.00;54.50;;;;;;5045033;28;20464;-69
2022/07/20 06:56:58;;;;;;;9.00;8.10;;;28.00;54.30;;;;;;5051953;28;20182;-71
2022/07/20 06:59:24;;;;;;;9.27;8.57;;;28.10;54.70;;;;;;5004662;28;20436;-69
2022/07/20 07:01:50;;;;;;;9.23;7.30;;;28.10;54.90;;;;;;5066039;28;20738;-69
2022/07/20 07:04:16;;;;;;;7.70;7.10;;;28.10;54.50;;;;;;5053942;28;20185;-69
2022/07/20 07:06:42;;;;;;;10.23;9.50;;;28.20;54.50;;;;;;5035711;28;20428;-69
2022/07/20 07:09:09;;;;;;;7.57;6.70;;;28.20;54.30;;;;;;5049380;28;20424;-69
2022/07/20 07:11:35;;;;;;;6.83;5.80;;;28.30;54.80;;;;;;5051907;28;20192;-69
2022/07/20 07:14:02;;;;;;;8.47;7.30;;;28.30;55.20;;;;;;5048544;28;20843;-73
2022/07/20 07:16:28;;;;;;;8.37;7.57;;;28.40;55.90;;;;;;5052922;28;20424;-69
2022/07/20 07:18:54;;;;;;;11.50;10.70;;;28.40;55.80;;;;;;5050520;28;20989;-69
2022/07/20 07:21:20;;;;;;;8.33;7.70;;;28.40;55.40;;;;;;5047589;28;20229;-70
2022/07/20 07:23:49;;;;;;;11.00;10.10;;;28.40;55.60;;;;;;5050711;28;20424;-69
2022/07/20 07:26:19;;;;;;;10.50;9.70;;;28.40;55.80;;;;;;5048977;28;20945;-69
2022/07/20 07:28:46;;;;;;;12.60;10.60;;;28.40;55.50;;;;;;5051103;28;20435;-69
2022/07/20 07:31:12;;;;;;;12.93;10.17;;;28.50;56.00;;;;;;5051056;28;20849;-69
2022/07/20 07:33:37;;;;;;;14.03;12.93;;;28.50;56.30;;;;;;5049666;28;20460;-69
2022/07/20 07:36:04;;;;;;;11.17;10.17;;;28.50;56.10;;;;;;5033344;28;20935;-73
2022/07/20 07:38:30;;;;;;;11.97;10.93;;;28.60;55.90;;;;;;5050053;28;20197;-69
2022/07/20 07:40:56;;;;;;;12.50;11.30;;;28.50;56.20;;;;;;5032566;28;20478;-69
2022/07/20 07:43:22;;;;;;;12.97;11.53;;;28.60;56.30;;;;;;5050684;28;20405;-69
2022/07/20 07:45:47;;;;;;;16.27;12.40;;;28.60;56.70;;;;;;5047836;28;20432;-69
2022/07/20 07:48:13;;;;;;;15.87;14.43;;;28.70;57.60;;;;;;5048367;28;20192;-69
2022/07/20 07:50:43;;;;;;;16.13;14.60;;;28.70;58.60;;;;;;5046222;28;20543;-69
2022/07/20 07:53:11;;;;;;;16.70;14.97;;;28.70;59.00;;;;;;5050832;28;20257;-69
2022/07/20 07:55:38;;;;;;;17.77;16.23;;;28.80;59.40;;;;;;5048651;28;20440;-69
2022/07/20 07:58:05;;;;;;;18.67;16.73;;;28.80;59.40;;;;;;5050974;28;20420;-72
2022/07/20 08:00:31;;;;;;;19.40;17.53;;;28.80;59.20;;;;;;5033914;28;20417;-69
2022/07/20 08:02:57;;;;;;;20.87;19.00;;;28.90;59.90;;;;;;5033734;28;20474;-69
2022/07/20 08:05:23;;;;;;;21.70;19.70;;;28.90;60.10;;;;;;5050663;28;20787;-69
2022/07/20 08:07:49;;;;;;;20.10;18.20;;;29.00;61.20;;;;;;5034711;28;20173;-69
2022/07/20 08:10:15;;;;;;;21.03;19.30;;;29.00;62.40;;;;;;5054410;28;20173;-69
2022/07/20 08:12:43;;;;;;;22.93;21.03;;;29.10;62.40;;;;;;5055142;28;20411;-69
2022/07/20 08:15:10;;;;;;;23.57;21.57;;;29.10;62.10;;;;;;5054277;28;20995;-69
2022/07/20 08:17:36;;;;;;;22.87;20.73;;;29.10;62.60;;;;;;5054079;28;20459;-69
2022/07/20 08:20:04;;;;;;;24.33;22.20;;;29.10;63.40;;;;;;5054955;28;20416;-69
2022/07/20 08:22:30;;;;;;;24.50;22.30;;;29.20;63.20;;;;;;5054545;28;20170;-69
2022/07/20 08:24:56;;;;;;;26.10;23.73;;;29.20;64.10;;;;;;5054915;28;20431;-69
2022/07/20 08:27:23;;;;;;;25.93;23.20;;;29.20;64.20;;;;;;4986599;28;20279;-69
2022/07/20 08:29:48;;;;;;;25.67;23.33;;;29.20;64.90;;;;;;5054809;28;20445;-70
2022/07/20 08:32:14;;;;;;;25.73;23.43;;;29.20;64.60;;;;;;5053968;28;20347;-69
2022/07/20 08:34:40;;;;;;;25.27;22.97;;;29.20;64.40;;;;;;5054508;28;20209;-69
2022/07/20 08:37:06;;;;;;;25.87;23.47;;;29.30;65.00;;;;;;5054345;28;20223;-73
2022/07/20 08:39:31;;;;;;;27.03;24.60;;;29.30;65.00;;;;;;5036323;28;20486;-69
2022/07/20 08:41:57;;;;;;;27.30;24.90;;;29.40;65.20;;;;;;5054742;28;20247;-69
2022/07/20 08:44:23;;;;;;;27.13;24.63;;;29.40;64.20;;;;;;5050991;28;20567;-70
2022/07/20 08:46:51;;;;;;;27.87;25.07;;;29.40;62.70;;;;;;5054479;28;20177;-69
2022/07/20 08:49:18;;;;;;;28.90;26.37;;;29.40;63.30;;;;;;5053388;28;20178;-69
2022/07/20 08:51:44;;;;;;;30.00;27.30;;;29.40;62.30;;;;;;5054132;28;20420;-69
2022/07/20 08:54:10;;;;;;;27.17;24.50;;;29.40;61.90;;;;;;5053462;28;20547;-70
2022/07/20 08:56:36;;;;;;;28.27;25.70;;;29.50;61.50;;;;;;5053966;28;20193;-69
2022/07/20 08:59:01;;;;;;;29.80;26.87;;;29.60;62.10;;;;;;5054258;28;20412;-69
2022/07/20 09:01:27;;;;;;;29.53;26.83;;;29.60;61.60;;;;;;5053263;28;20196;-69
2022/07/20 09:04:22;;;;;;;28.43;25.93;;;29.70;61.70;;;;;;5054432;28;20212;-69
2022/07/20 09:06:49;;;;;;;28.47;25.77;;;29.90;63.30;;;;;;5032917;28;20201;-69
2022/07/20 09:09:16;;;;;;;27.50;25.13;;;29.90;62.20;;;;;;5053331;28;20412;-69
2022/07/20 09:11:42;;;;;;;28.23;25.90;;;30.00;62.00;;;;;;5054143;28;20409;-69
2022/07/20 09:14:08;;;;;;;28.40;25.80;;;30.10;61.60;;;;;;5051894;28;20529;-72
2022/07/20 09:16:48;;;;;;;28.60;26.03;;;30.20;60.80;;;;;;5051137;28;20185;-69
2022/07/20 09:19:15;;;;;;;30.43;27.30;;;30.40;60.80;;;;;;5052255;28;20277;-69
2022/07/20 09:21:41;;;;;;;28.40;25.70;;;30.50;60.60;;;;;;5053869;28;20505;-70
2022/07/20 09:24:09;;;;;;;28.87;26.57;;;30.60;59.90;;;;;;5053642;28;20534;-74
2022/07/20 09:26:36;;;;;;;29.80;27.00;;;30.70;59.80;;;;;;5053512;28;20412;-70
2022/07/20 09:29:05;;;;;;;29.90;27.20;;;30.80;59.90;;;;;;5053369;28;20931;-70
2022/07/20 09:31:39;;;;;;;28.43;26.13;;;30.90;59.20;;;;;;5052920;28;20408;-70
2022/07/20 09:34:12;;;;;;;28.10;25.73;;;31.00;59.40;;;;;;5053703;28;20545;-70
2022/07/20 09:36:41;;;;;;;29.43;27.13;;;31.10;59.90;;;;;;5053745;28;20400;-70
2022/07/20 09:39:13;;;;;;;28.97;26.27;;;31.20;59.50;;;;;;5053489;28;20763;-70
2022/07/20 09:41:51;;;;;;;30.70;28.07;;;31.30;59.70;;;;;;5053220;28;20428;-70
2022/07/20 09:44:23;;;;;;;27.77;25.13;;;31.50;59.80;;;;;;5051938;28;20455;-70
2022/07/20 09:46:49;;;;;;;27.60;25.23;;;31.60;58.60;;;;;;5052387;28;20421;-69
2022/07/20 09:49:15;;;;;;;30.77;28.07;;;31.60;58.00;;;;;;5052171;28;20558;-69
2022/07/20 09:51:43;;;;;;;28.27;25.97;;;31.60;57.40;;;;;;5053295;28;20503;-69
2022/07/20 09:54:15;;;;;;;26.70;24.20;;;31.70;58.00;;;;;;5052774;28;20348;-73
2022/07/20 09:56:44;;;;;;;29.23;26.23;;;31.80;57.50;;;;;;5052911;28;20764;-69
2022/07/20 09:59:11;;;;;;;30.80;28.30;;;32.00;57.40;;;;;;5053223;28;20415;-73
2022/07/20 10:01:40;;;;;;;28.60;26.13;;;32.00;57.10;;;;;;5035006;28;20399;-70
2022/07/20 10:04:11;;;;;;;27.23;25.10;;;32.10;57.60;;;;;;5035283;28;20420;-70
2022/07/20 10:06:38;;;;;;;28.07;25.77;;;32.10;57.50;;;;;;5052898;28;20500;-70
2022/07/20 10:09:06;;;;;;;29.07;26.50;;;32.10;57.40;;;;;;5035332;28;20462;-70
2022/07/20 10:11:32;;;;;;;28.80;26.20;;;32.20;56.50;;;;;;5051887;28;21034;-70
2022/07/20 10:14:01;;;;;;;25.77;23.70;;;32.30;56.60;;;;;;5050417;28;20493;-71
2022/07/20 10:16:56;;;;;;;27.43;25.07;;;32.40;57.40;;;;;;5049071;28;20428;-70
2022/07/20 10:19:46;;;;;;;29.50;27.30;;;32.60;56.90;;;;;;5047145;28;20452;-70
2022/07/20 10:22:12;;;;;;;26.50;24.20;;;32.70;56.40;;;;;;5033451;28;20834;-74
2022/07/20 10:24:39;;;;;;;29.33;27.00;;;32.80;56.10;;;;;;5072157;28;20419;-70
2022/07/20 10:27:16;;;;;;;27.10;24.93;;;32.80;55.50;;;;;;5072400;28;20411;-70
2022/07/20 10:29:47;;;;;;;26.07;23.83;;;32.90;55.30;;;;;;5072643;28;20417;-70
2022/07/20 10:32:20;;;;;;;27.67;25.50;;;33.00;55.50;;;;;;5070669;28;20396;-74
2022/07/20 10:34:56;;;;;;;26.17;23.97;;;33.00;55.00;;;;;;5071860;28;20469;-70
2022/07/20 10:37:26;;;;;;;28.83;26.53;;;33.10;54.00;;;;;;5071427;28;20411;-70
2022/07/20 10:39:53;;;;;;;25.43;23.03;;;33.10;54.50;;;;;;5072272;28;20892;-70
2022/07/20 10:42:22;;;;;;;27.13;24.80;;;33.10;54.90;;;;;;5071755;28;20412;-70
2022/07/20 10:44:49;;;;;;;27.47;25.40;;;33.10;54.00;;;;;;5072486;28;20420;-70
2022/07/20 10:47:42;;;;;;;25.93;23.67;;;33.10;55.00;;;;;;5070763;28;20400;-73
2022/07/20 10:50:19;;;;;;;27.93;25.30;;;33.20;54.90;;;;;;5072115;28;20785;-70
2022/07/20 10:52:49;;;;;;;25.70;23.60;;;33.20;53.90;;;;;;5072677;28;20396;-70
2022/07/20 10:55:33;;;;;;;26.60;24.50;;;33.20;54.30;;;;;;5071455;28;20469;-73
2022/07/20 10:58:10;;;;;;;25.50;23.37;;;33.30;53.70;;;;;;5072286;28;20407;-70
2022/07/20 11:00:58;;;;;;;25.50;23.40;;;33.40;53.70;;;;;;5071265;28;20396;-70
2022/07/20 11:03:27;;;;;;;26.43;24.43;;;33.40;53.40;;;;;;5068522;28;20431;-70
2022/07/20 11:05:59;;;;;;;24.40;22.60;;;33.40;53.90;;;;;;5070280;28;20427;-70
2022/07/20 11:08:25;;;;;;;26.87;24.77;;;33.60;53.40;;;;;;5071405;28;20913;-70
2022/07/20 11:10:52;;;;;;;26.30;24.30;;;33.60;53.80;;;;;;5071009;28;20403;-70
2022/07/20 11:13:18;;;;;;;25.30;23.00;;;33.70;54.50;;;;;;5071010;28;20403;-74
2022/07/20 11:15:53;;;;;;;24.53;22.73;;;33.70;53.30;;;;;;5072161;28;20803;-70
2022/07/20 11:18:24;;;;;;;25.30;23.30;;;33.80;53.20;;;;;;5071265;28;20402;-71
2022/07/20 11:21:02;;;;;;;24.60;22.77;;;33.90;52.50;;;;;;5064997;28;20455;-70
2022/07/20 11:23:45;;;;;;;24.60;22.40;;;34.00;51.60;;;;;;5051093;28;20733;-69
2022/07/20 11:26:13;;;;;;;24.00;21.97;;;34.00;52.80;;;;;;5016902;28;20408;-69
2022/07/20 11:28:53;;;;;;;26.17;24.20;;;34.00;52.30;;;;;;5050921;28;20431;-69
2022/07/20 11:31:23;;;;;;;25.23;23.13;;;34.10;52.70;;;;;;5051019;28;20407;-73
2022/07/20 11:33:51;;;;;;;23.77;21.77;;;34.10;52.10;;;;;;5050682;28;20456;-69
2022/07/20 11:36:20;;;;;;;27.13;24.83;;;34.10;52.70;;;;;;5032842;28;20904;-73
2022/07/20 11:38:51;;;;;;;24.23;22.20;;;34.10;51.80;;;;;;5050655;28;20432;-69
2022/07/20 11:41:20;;;;;;;25.40;23.30;;;34.10;51.20;;;;;;5050441;28;20464;-73
2022/07/20 11:43:46;;;;;;;23.10;21.20;;;34.10;52.00;;;;;;5054441;28;20451;-69
2022/07/20 11:46:12;;;;;;;24.03;22.10;;;34.10;52.50;;;;;;5037944;28;20428;-70
2022/07/20 11:48:38;;;;;;;24.87;22.40;;;34.10;51.50;;;;;;5054612;28;20170;-70
2022/07/20 11:51:06;;;;;;;23.80;21.80;;;34.00;52.40;;;;;;5055395;28;20538;-70
2022/07/20 11:53:35;;;;;;;25.57;23.37;;;33.90;51.60;;;;;;5054686;28;20420;-69
2022/07/20 11:56:05;;;;;;;22.63;20.87;;;33.90;52.20;;;;;;5037562;28;20427;-69
2022/07/20 11:58:35;;;;;;;24.50;22.40;;;33.90;52.00;;;;;;5036855;28;20420;-69
2022/07/20 12:01:07;;;;;;;23.57;21.40;;;33.80;52.70;;;;;;5055427;28;20447;-70
2022/07/20 12:03:38;;;;;;;24.70;22.17;;;33.90;52.80;;;;;;5036880;28;20408;-70
2022/07/20 12:06:07;;;;;;;23.40;21.50;;;33.90;52.50;;;;;;5054430;28;20427;-69
2022/07/20 12:08:36;;;;;;;23.90;21.60;;;33.80;52.00;;;;;;5002962;28;20948;-69
2022/07/20 12:11:03;;;;;;;26.03;23.93;;;33.80;52.80;;;;;;5055217;28;20752;-70
2022/07/20 12:13:29;;;;;;;24.30;22.00;;;33.90;53.50;;;;;;5054335;28;20400;-70
2022/07/20 12:16:01;;;;;;;24.10;22.20;;;33.80;52.60;;;;;;5054987;28;20408;-69
2022/07/20 12:18:35;;;;;;;23.27;21.27;;;33.80;52.10;;;;;;5036302;28;20418;-70
2022/07/20 12:21:01;;;;;;;22.13;20.20;;;33.70;53.50;;;;;;5054803;28;20491;-70
2022/07/20 12:23:27;;;;;;;22.87;20.80;;;33.70;53.30;;;;;;5054139;28;20431;-70
2022/07/20 12:25:53;;;;;;;21.90;19.90;;;33.60;53.40;;;;;;5054790;28;20428;-70
2022/07/20 12:28:35;;;;;;;22.07;20.20;;;33.60;53.20;;;;;;5054499;28;20484;-74
2022/07/20 12:31:18;;;;;;;22.37;20.57;;;33.50;52.50;;;;;;5054884;28;20503;-70
2022/07/20 12:34:11;;;;;;;20.87;19.27;;;33.50;53.10;;;;;;5054260;28;20543;-70
2022/07/20 12:36:48;;;;;;;23.23;21.33;;;33.40;52.80;;;;;;5052529;28;20923;-70
2022/07/20 12:39:36;;;;;;;20.97;19.30;;;33.40;53.00;;;;;;5036052;28;20447;-70